createdAt,value
2023-09-12T03:01:18.243Z,7.97
2023-09-12T03:03:48.929Z,8.10
2023-09-12T03:06:19.466Z,8.00
2023-09-12T03:08:47.984Z,7.07
2023-09-12T03:11:15.913Z,7.30
2023-09-12T03:13:43.987Z,7.15
2023-09-12T03:16:12.361Z,7.72
2023-09-12T03:18:42.080Z,6.90
2023-09-12T03:21:12.522Z,6.78
2023-09-12T03:23:40.551Z,7.60
2023-09-12T03:26:09.664Z,7.88
2023-09-12T03:28:38.896Z,7.47
2023-09-12T03:31:09.714Z,7.22
2023-09-12T03:33:37.832Z,7.82
2023-09-12T03:36:08.515Z,7.80
2023-09-12T03:38:37.040Z,8.10
2023-09-12T03:41:05.044Z,7.63
2023-09-12T03:43:34.497Z,7.50
2023-09-12T03:46:04.421Z,7.55
2023-09-12T03:48:32.978Z,7.45
2023-09-12T03:51:02.052Z,7.50
2023-09-12T03:53:31.611Z,7.32
2023-09-12T03:56:00.608Z,7.00
2023-09-12T03:58:29.098Z,7.53
2023-09-12T04:00:56.990Z,7.40
2023-09-12T04:03:25.063Z,7.93
2023-09-12T04:05:53.616Z,8.07
2023-09-12T04:08:21.819Z,7.30
2023-09-12T04:10:51.285Z,7.50
2023-09-12T04:13:19.739Z,8.05
2023-09-12T04:15:47.785Z,7.97
2023-09-12T04:18:15.826Z,7.60
2023-09-12T04:20:43.859Z,8.18
2023-09-12T04:23:11.921Z,7.70
2023-09-12T04:25:39.896Z,7.55
2023-09-12T04:28:09.342Z,7.80
2023-09-12T04:30:37.475Z,8.00
2023-09-12T04:33:06.486Z,8.55
2023-09-12T04:35:36.700Z,7.80
2023-09-12T04:38:05.253Z,7.63
2023-09-12T04:40:33.190Z,8.52
2023-09-12T04:43:01.133Z,8.18
2023-09-12T04:45:34.651Z,8.07
2023-09-12T04:48:03.044Z,7.68
2023-09-12T04:50:30.961Z,8.45
2023-09-12T04:52:58.883Z,8.75
2023-09-12T04:55:26.788Z,9.32
2023-09-12T04:57:54.674Z,8.77
2023-09-12T05:00:22.669Z,8.40
2023-09-12T05:02:51.943Z,8.27
2023-09-12T05:05:19.897Z,8.68
2023-09-12T05:07:47.967Z,8.82
2023-09-12T05:10:15.988Z,8.25
2023-09-12T05:12:43.893Z,8.25
2023-09-12T05:15:12.160Z,8.35
2023-09-12T05:17:40.092Z,8.88
2023-09-12T05:20:10.931Z,8.25
2023-09-12T05:22:38.768Z,8.43
2023-09-12T05:25:07.445Z,8.57
2023-09-12T05:27:35.634Z,9.02
2023-09-12T05:30:04.122Z,8.50
2023-09-12T05:32:32.296Z,8.00
2023-09-12T05:35:14.957Z,7.95
2023-09-12T05:37:49.776Z,7.47
2023-09-12T05:40:17.744Z,7.60
2023-09-12T05:42:45.609Z,7.40
2023-09-12T05:45:13.763Z,7.72
2023-09-12T05:47:41.664Z,7.65
2023-09-12T05:50:09.884Z,7.35
2023-09-12T05:52:38.169Z,7.60
2023-09-12T05:55:08.053Z,8.18
2023-09-12T05:57:36.366Z,7.65
2023-09-12T06:00:11.273Z,8.30
2023-09-12T06:02:43.263Z,8.50
2023-09-12T06:05:11.279Z,8.90
2023-09-12T06:07:42.008Z,8.43
2023-09-12T06:10:12.047Z,7.90
2023-09-12T06:12:39.925Z,8.95
2023-09-12T06:15:08.705Z,8.52
2023-09-12T06:17:36.659Z,8.80
2023-09-12T06:20:07.424Z,9.80
2023-09-12T06:22:36.781Z,8.80
2023-09-12T06:25:05.104Z,8.65
2023-09-12T06:27:34.319Z,8.55
2023-09-12T06:30:02.260Z,9.15
2023-09-12T06:32:30.178Z,9.00
2023-09-12T06:34:58.065Z,9.10
2023-09-12T06:37:25.909Z,9.32
2023-09-12T06:39:53.820Z,9.68
2023-09-12T06:42:21.664Z,9.52
2023-09-12T06:44:50.910Z,10.90
2023-09-12T06:47:18.803Z,11.38
2023-09-12T06:49:50.390Z,10.45
2023-09-12T06:52:20.664Z,10.55
2023-09-12T06:54:48.630Z,9.32
2023-09-12T06:57:16.541Z,9.02
2023-09-12T06:59:44.404Z,11.75
2023-09-12T07:02:14.222Z,10.77
2023-09-12T07:04:42.220Z,11.90
2023-09-12T07:07:10.035Z,10.52
2023-09-12T07:09:37.890Z,9.68
2023-09-12T07:12:06.782Z,10.02
2023-09-12T07:14:34.711Z,10.23
2023-09-12T07:17:02.546Z,9.40
2023-09-12T07:19:32.203Z,8.90
2023-09-12T07:22:00.275Z,8.38
2023-09-12T07:24:28.685Z,8.70
2023-09-12T07:26:56.638Z,8.38
2023-09-12T07:29:24.475Z,8.00
2023-09-12T07:31:54.332Z,7.97
2023-09-12T07:34:22.762Z,8.35
2023-09-12T07:36:52.668Z,8.68
2023-09-12T07:39:20.556Z,7.65
2023-09-12T07:41:48.594Z,8.13
2023-09-12T07:44:17.652Z,8.98
2023-09-12T07:46:45.591Z,8.82
2023-09-12T07:49:13.444Z,9.15
2023-09-12T07:51:41.325Z,8.63
2023-09-12T07:54:10.814Z,7.60
2023-09-12T07:56:38.652Z,9.18
2023-09-12T07:59:06.452Z,8.68
2023-09-12T08:01:34.365Z,8.40
2023-09-12T08:04:02.261Z,8.77
2023-09-12T08:06:35.802Z,8.43
2023-09-12T08:09:13.324Z,8.43
2023-09-12T08:11:41.176Z,8.98
2023-09-12T08:14:08.992Z,9.77
2023-09-12T08:16:36.936Z,8.55
2023-09-12T08:19:04.846Z,9.07
2023-09-12T08:21:32.756Z,11.25
2023-09-12T08:24:00.665Z,11.63
2023-09-12T08:26:30.842Z,10.95
2023-09-12T08:29:00.454Z,9.93
2023-09-12T08:31:28.439Z,10.93
2023-09-12T08:33:56.344Z,10.55
2023-09-12T08:36:24.247Z,9.85
2023-09-12T08:38:52.079Z,10.52
2023-09-12T08:41:19.941Z,11.00
2023-09-12T08:43:50.195Z,11.32
2023-09-12T08:46:19.306Z,10.77
2023-09-12T08:48:49.035Z,7.80
2023-09-12T08:51:17.033Z,7.47
2023-09-12T08:53:45.186Z,7.53
2023-09-12T08:56:13.744Z,6.68
2023-09-12T08:58:42.173Z,6.68
2023-09-12T09:01:14.083Z,6.80
2023-09-12T09:03:44.655Z,6.82
2023-09-12T09:06:13.710Z,6.80
2023-09-12T09:08:42.680Z,7.20
2023-09-12T09:11:11.905Z,6.50
2023-09-12T09:13:39.772Z,6.25
2023-09-12T09:16:16.776Z,7.10
2023-09-12T09:18:55.221Z,6.88
2023-09-12T09:21:25.471Z,6.95
2023-09-12T09:23:54.126Z,6.78
2023-09-12T09:26:22.330Z,6.80
2023-09-12T09:29:05.076Z,6.78
2023-09-12T09:31:35.316Z,6.90
2023-09-12T09:34:04.916Z,7.38
2023-09-12T09:36:34.277Z,7.13
2023-09-12T09:39:05.731Z,7.10
2023-09-12T09:41:33.932Z,6.95
2023-09-12T09:44:01.978Z,7.10
2023-09-12T09:46:29.894Z,7.50
2023-09-12T09:49:00.227Z,7.22
2023-09-12T09:51:28.412Z,6.63
2023-09-12T09:53:59.069Z,7.03
2023-09-12T09:56:27.765Z,7.13
2023-09-12T09:58:57.573Z,6.82
2023-09-12T10:01:28.895Z,9.43
2023-09-12T10:04:02.244Z,8.57
2023-09-12T10:06:31.682Z,8.50
2023-09-12T10:09:01.039Z,6.95
2023-09-12T10:11:32.303Z,9.48
2023-09-12T10:14:05.033Z,9.30
2023-09-12T10:16:34.419Z,10.05
2023-09-12T10:19:15.780Z,9.38
2023-09-12T10:21:49.059Z,7.03
2023-09-12T10:24:17.647Z,6.22
2023-09-12T10:26:46.304Z,6.95
2023-09-12T10:29:16.235Z,7.45
2023-09-12T10:31:44.631Z,6.90
2023-09-12T10:34:18.730Z,7.78
2023-09-12T10:36:48.785Z,7.78
2023-09-12T10:39:17.547Z,7.35
2023-09-12T10:41:45.402Z,7.32
2023-09-12T10:44:17.048Z,7.43
2023-09-12T10:46:47.053Z,7.50
2023-09-12T10:49:18.003Z,6.90
2023-09-12T10:51:47.581Z,7.93
2023-09-12T10:54:16.964Z,8.27
2023-09-12T10:56:45.830Z,7.70
2023-09-12T10:59:15.129Z,7.90
2023-09-12T11:01:46.585Z,7.45
2023-09-12T11:04:36.108Z,7.18
2023-09-12T11:07:24.279Z,7.05
2023-09-12T11:10:19.653Z,7.10
2023-09-12T11:12:49.619Z,7.13
2023-09-12T11:15:18.265Z,6.35
2023-09-12T11:17:47.534Z,7.10
2023-09-12T11:20:18.567Z,7.32
2023-09-12T11:22:47.333Z,6.50
2023-09-12T11:25:20.100Z,7.57
2023-09-12T11:28:04.716Z,7.60
2023-09-12T11:30:32.997Z,7.53
2023-09-12T11:33:02.135Z,7.70
2023-09-12T11:35:31.643Z,7.22
2023-09-12T11:38:01.933Z,8.07
2023-09-12T11:40:45.827Z,7.60
2023-09-12T11:43:22.877Z,7.05
2023-09-12T11:45:52.631Z,8.27
2023-09-12T11:48:21.255Z,7.80
2023-09-12T11:50:55.076Z,7.78
2023-09-12T11:53:26.445Z,8.20
2023-09-12T11:55:58.338Z,7.82
2023-09-12T11:58:28.128Z,7.80
2023-09-12T12:00:58.008Z,8.05
2023-09-12T12:03:28.145Z,7.40
2023-09-12T12:05:58.673Z,7.38
2023-09-12T12:08:32.021Z,7.93
2023-09-12T12:11:01.460Z,7.70
2023-09-12T12:13:30.402Z,7.55
2023-09-12T12:15:58.942Z,7.38
2023-09-12T12:18:28.179Z,8.07
2023-09-12T12:20:57.715Z,7.78
2023-09-12T12:23:25.762Z,7.28
2023-09-12T12:25:53.582Z,7.93
2023-09-12T12:28:23.050Z,8.15
2023-09-12T12:30:55.090Z,7.95
2023-09-12T12:33:53.716Z,7.20
2023-09-12T12:36:12.437Z,7.30
2023-09-12T12:38:51.745Z,7.55
2023-09-12T12:41:28.021Z,7.57
2023-09-12T12:44:03.563Z,7.50
2023-09-12T12:46:32.134Z,7.40
2023-09-12T12:49:00.210Z,7.90
2023-09-12T12:51:31.422Z,7.97
2023-09-12T12:54:06.903Z,7.93
2023-09-12T12:56:35.425Z,7.50
2023-09-12T12:59:07.639Z,7.40
2023-09-12T13:01:36.115Z,7.25
2023-09-12T13:04:04.206Z,7.97
2023-09-12T13:06:36.864Z,7.68
2023-09-12T13:09:06.943Z,8.15
2023-09-12T13:11:35.757Z,7.97
2023-09-12T13:14:04.533Z,8.10
2023-09-12T13:16:32.420Z,8.70
2023-09-12T13:19:00.382Z,8.32
2023-09-12T13:21:29.236Z,7.95
2023-09-12T13:23:59.852Z,7.95
2023-09-12T13:26:29.846Z,8.23
2023-09-12T13:28:58.319Z,7.35
2023-09-12T13:31:26.516Z,7.65
2023-09-12T13:33:54.612Z,7.45
2023-09-12T13:36:22.538Z,7.97
2023-09-12T13:38:52.471Z,7.80
2023-09-12T13:41:23.259Z,7.13
2023-09-12T13:43:51.073Z,7.70
2023-09-12T13:46:19.001Z,7.50
2023-09-12T13:48:47.754Z,7.25
2023-09-12T13:51:16.854Z,6.90
2023-09-12T13:53:45.488Z,6.22
2023-09-12T13:56:13.527Z,6.47
2023-09-12T13:58:45.169Z,6.00
2023-09-12T14:01:21.782Z,5.82
2023-09-12T14:03:56.998Z,6.25
2023-09-12T14:06:25.269Z,5.47
2023-09-12T14:08:54.778Z,6.22
2023-09-12T14:11:31.471Z,5.38
2023-09-12T14:14:13.963Z,5.55
2023-09-12T14:16:47.996Z,5.22
2023-09-12T14:19:17.495Z,6.05
2023-09-12T14:21:47.000Z,6.07
2023-09-12T14:24:15.889Z,6.10
2023-09-12T14:26:44.917Z,5.70
2023-09-12T14:29:15.231Z,6.20
2023-09-12T14:31:51.569Z,6.00
2023-09-12T14:34:19.705Z,5.70
2023-09-12T14:36:48.552Z,5.80
2023-09-12T14:39:16.980Z,5.57
2023-09-12T14:41:50.668Z,5.75
2023-09-12T14:44:19.969Z,5.50
2023-09-12T14:46:47.961Z,5.50
2023-09-12T14:49:16.292Z,5.22
2023-09-12T14:51:44.156Z,6.20
2023-09-12T14:54:12.098Z,6.00
2023-09-12T14:56:39.946Z,6.18
2023-09-12T14:59:08.048Z,6.60
2023-09-12T15:01:37.408Z,5.75
2023-09-12T15:04:05.643Z,6.30
2023-09-12T15:06:34.497Z,5.65
2023-09-12T15:09:03.412Z,6.07
2023-09-12T15:11:32.398Z,6.20
2023-09-12T15:14:00.546Z,5.72
2023-09-12T15:16:28.503Z,5.82
2023-09-12T15:18:57.726Z,5.53
2023-09-12T15:21:25.655Z,6.00
2023-09-12T15:23:54.679Z,6.03
2023-09-12T15:26:23.136Z,5.97
2023-09-12T15:28:50.993Z,6.55
2023-09-12T15:31:19.173Z,6.50
2023-09-12T15:33:47.568Z,6.53
2023-09-12T15:36:16.923Z,7.20
2023-09-12T15:38:44.812Z,6.50
2023-09-12T15:41:14.411Z,6.72
2023-09-12T15:43:42.377Z,7.18
2023-09-12T15:46:10.345Z,7.22
2023-09-12T15:48:38.395Z,7.38
2023-09-12T15:51:06.781Z,7.57
2023-09-12T15:53:36.006Z,7.85
2023-09-12T15:56:04.011Z,7.88
2023-09-12T15:58:32.024Z,7.85
2023-09-12T16:01:01.023Z,8.63
2023-09-12T16:03:29.209Z,8.23
2023-09-12T16:05:57.140Z,8.70
2023-09-12T16:08:25.130Z,8.80
2023-09-12T16:10:54.314Z,8.63
2023-09-12T16:13:22.178Z,8.68
2023-09-12T16:15:50.152Z,8.25
2023-09-12T16:18:18.141Z,8.55
2023-09-12T16:20:46.225Z,8.65
2023-09-12T16:23:14.140Z,8.52
2023-09-12T16:25:42.086Z,8.07
2023-09-12T16:28:11.358Z,9.10
2023-09-12T16:30:40.156Z,8.60
2023-09-12T16:33:08.680Z,8.30
2023-09-12T16:35:36.657Z,8.40
2023-09-12T16:38:04.862Z,8.13
2023-09-12T16:40:33.514Z,8.48
2023-09-12T16:43:02.090Z,8.30
2023-09-12T16:45:31.556Z,8.65
2023-09-12T16:47:59.668Z,10.57
2023-09-12T16:50:28.168Z,8.93
2023-09-12T16:52:56.184Z,8.73
2023-09-12T16:55:26.015Z,8.20
2023-09-12T16:57:54.103Z,8.25
2023-09-12T17:00:22.245Z,8.73
2023-09-12T17:02:51.508Z,9.38
2023-09-12T17:05:19.616Z,9.48
2023-09-12T17:07:47.614Z,8.52
2023-09-12T17:10:15.566Z,8.40
2023-09-12T17:12:45.016Z,8.93
2023-09-12T17:15:13.511Z,8.70
2023-09-12T17:17:41.912Z,9.13
2023-09-12T17:20:12.881Z,8.77
2023-09-12T17:22:41.036Z,9.30
2023-09-12T17:25:09.969Z,9.57
2023-09-12T17:27:38.968Z,9.15
2023-09-12T17:30:08.981Z,9.07
2023-09-12T17:32:36.924Z,8.90
2023-09-12T17:35:05.258Z,9.20
2023-09-12T17:37:34.569Z,9.20
2023-09-12T17:40:02.831Z,9.32
2023-09-12T17:42:31.948Z,8.65
2023-09-12T17:44:59.983Z,8.90
2023-09-12T17:47:28.125Z,9.25
2023-09-12T17:49:57.383Z,9.10
2023-09-12T17:52:25.508Z,9.63
2023-09-12T17:54:54.966Z,9.00
2023-09-12T17:57:23.001Z,9.93
2023-09-12T17:59:52.163Z,9.40
2023-09-12T18:02:20.250Z,8.70
2023-09-12T18:04:48.319Z,8.07
2023-09-12T18:07:17.750Z,6.70
2023-09-12T18:09:46.833Z,5.13
2023-09-12T18:12:16.406Z,4.30
2023-09-12T18:14:44.334Z,3.00
2023-09-12T18:17:12.490Z,3.10
2023-09-12T18:19:40.584Z,3.20
2023-09-12T18:22:08.542Z,2.70
2023-09-12T18:24:36.606Z,3.20
2023-09-12T18:27:04.791Z,3.28
2023-09-12T18:29:34.150Z,3.58
2023-09-12T18:32:02.185Z,3.38
2023-09-12T18:34:30.115Z,3.58
2023-09-12T18:36:58.118Z,4.20
2023-09-12T18:39:26.480Z,4.20
2023-09-12T18:41:54.365Z,4.10
2023-09-12T18:44:24.532Z,3.67
2023-09-12T18:46:54.131Z,3.92
2023-09-12T18:49:22.221Z,3.85
2023-09-12T18:51:51.224Z,4.32
2023-09-12T18:54:22.707Z,3.90
2023-09-12T18:56:51.604Z,4.53
2023-09-12T18:59:19.804Z,3.80
2023-09-12T19:01:47.798Z,3.40
2023-09-12T19:04:27.793Z,5.97
2023-09-12T19:06:56.511Z,6.80
2023-09-12T19:09:24.722Z,5.53
2023-09-12T19:11:53.859Z,6.40
2023-09-12T19:14:21.781Z,7.43
2023-09-12T19:16:54.135Z,7.60
2023-09-12T19:19:22.266Z,7.18
2023-09-12T19:21:51.800Z,7.93
2023-09-12T19:24:19.822Z,7.68
2023-09-12T19:26:49.117Z,8.50
2023-09-12T19:29:17.763Z,8.80
2023-09-12T19:31:45.963Z,8.68
2023-09-12T19:34:14.111Z,8.55
2023-09-12T19:36:42.307Z,8.88
2023-09-12T19:39:11.581Z,7.75
2023-09-12T19:41:39.550Z,8.13
2023-09-12T19:44:08.050Z,7.07
2023-09-12T19:46:40.906Z,7.90
2023-09-12T19:49:09.967Z,7.82
2023-09-12T19:51:38.029Z,7.90
2023-09-12T19:54:06.111Z,8.30
2023-09-12T19:56:35.646Z,8.65
2023-09-12T19:59:03.532Z,6.18
2023-09-12T20:01:31.473Z,6.20
2023-09-12T20:03:59.792Z,5.88
2023-09-12T20:06:27.842Z,5.68
2023-09-12T20:08:55.772Z,5.07
2023-09-12T20:11:23.733Z,4.80
2023-09-12T20:13:52.970Z,4.88
2023-09-12T20:16:22.298Z,5.22
2023-09-12T20:18:50.347Z,4.97
2023-09-12T20:21:19.176Z,5.13
2023-09-12T20:23:47.072Z,5.40
2023-09-12T20:26:15.004Z,4.90
2023-09-12T20:28:42.937Z,4.82
2023-09-12T20:31:12.724Z,5.03
2023-09-12T20:33:40.739Z,5.35
2023-09-12T20:36:09.056Z,5.60
2023-09-12T20:38:36.949Z,5.30
2023-09-12T20:41:04.842Z,4.82
2023-09-12T20:43:33.263Z,4.93
2023-09-12T20:46:01.246Z,5.22
2023-09-12T20:48:32.718Z,4.70
2023-09-12T20:51:01.166Z,5.15
2023-09-12T20:53:29.428Z,4.57
2023-09-12T20:55:57.338Z,4.85
2023-09-12T20:58:25.205Z,5.05
2023-09-12T21:00:53.165Z,5.00
2023-09-12T21:03:21.415Z,5.85
2023-09-12T21:05:50.732Z,5.78
2023-09-12T21:08:20.034Z,6.03
2023-09-12T21:10:48.529Z,6.25
2023-09-12T21:13:17.756Z,6.10
2023-09-12T21:15:46.329Z,6.70
2023-09-12T21:18:14.413Z,6.18
2023-09-12T21:20:42.329Z,7.03
2023-09-12T21:23:11.552Z,6.80
2023-09-12T21:25:39.468Z,6.40
2023-09-12T21:28:07.693Z,6.53
2023-09-12T21:30:35.855Z,6.80
2023-09-12T21:33:02.913Z,7.35
2023-09-12T21:35:31.995Z,7.22
2023-09-12T21:37:59.925Z,7.00
2023-09-12T21:40:30.029Z,6.97
2023-09-12T21:42:57.949Z,7.18
2023-09-12T21:45:25.942Z,6.85
2023-09-12T21:47:53.943Z,6.93
2023-09-12T21:50:21.985Z,7.47
2023-09-12T21:52:49.949Z,7.07
2023-09-12T21:55:17.882Z,6.65
2023-09-12T21:57:47.213Z,6.22
